Terminal Aerodrome Forecast
Issued by NWS

Home | Current Version | Previous Version | Text Only | Print | Product List | Glossary On
Versions: 1 2 3 4 5 6 7 8 9 10 11 12 13 14 15 16 17
000
FTUS46 KSEW 250500
TAFBFI
TAF
KBFI 250520Z 2506/2606 16006KT P6SM BKN060 BKN200
      TEMPO 2507/2511 BKN050 BKN200
     FM251100 17005KT P6SM BKN060 BKN200
     FM252100 24006KT P6SM VCSH BKN050=

USA.gov is the U.S. government's official web portal to all federal, state and local government web resources and services.